Reydell, AR (72133)

11:40 AM CDT on October 02, 2014 (GMT -0500)
Grider | Change Station
CLOSE
Current Station
Airport
Location: Pine Bluff,
Elevation: 207 ft
Nearby Weather Stations

Elev 207 ft 34.17 °N, 91.93 °W | Updated 22 minutes ago

Mostly Cloudy
Mostly Cloudy
84 °F
Feels Like 89 °F
N
15
Wind Variable Wind from SW
Gusts 22 mph

Today
High -- | Low -- °F
--% Chance of Precip.
Yesterday
High -- | Low -- °F
Precip. -- in
7:01 AM 6:49 PM
First Quarter, 60% visible
Pressure 29.90 in
Visibility 10.0 miles
Clouds Scattered Clouds 2500 ft
Mostly Cloudy 3500 ft
Heat Index 89 °F
Dew Point 71 °F
Humidity 65%
Rainfall 0.00 in
Snow Depth Not available.
UV 3 out of 12
Pollen 8.70 out of 12
Air Quality Not available.
Flu Activity Not available.
SPECI KPBF 021618Z AUTO 23013G19KT 10SM SCT025 BKN035 29/22 A2990 RMK AO2 T02890217

More Conditions Fewer Conditions

Pressure 29.90 in
Visibility 10.0 miles
Clouds Scattered Clouds 2500 ft
Mostly Cloudy 3500 ft
Heat Index 89 °F
Dew Point 71 °F
Humidity 65%
Rainfall 0.00 in
Snow Depth Not available.
UV 3 out of 12
Pollen 8.70 out of 12
Air Quality Not available.
Flu Activity Not available.
SPECI KPBF 021618Z AUTO 23013G19KT 10SM SCT025 BKN035 29/22 A2990 RMK AO2 T02890217

More Conditions Fewer Conditions

10-Day Weather Forecast

Almanac

Astronomy

Oct. 02, 2014 Rise Set
Actual Time 7:01 AM CDT 6:49 PM CDT
Civil Twilight 6:36 AM CDT 7:14 PM CDT
Nautical Twilight 6:07 AM CDT 7:43 PM CDT
Astronomical Twilight 5:38 AM CDT 8:12 PM CDT
Moon 2:42 PM CDT 12:33 AM CDT
Length of Visible Light 12h 37m
Length of Day
11h 47m
Tomorrow will be 2m 6s shorter.
First Quarter, 60% of the Moon is Illuminated
Today
First Quarter
Oct 8
Full
Oct 15
Last Quarter
Oct 23
New
Oct 30
First Quarter

Today's Extremes

State Highs State Lows

Community

WunderPhotos

Upload Photos

1,758,294 photos uploaded!

WunderBlogs® & News

Nearby

Snow Depth

Station Depth Elevation
No new snow has been reported.

Earthquake Activity

City Distance Mag. Time & Date
No recent earthquake activity has been reported nearby.
Minimum magnitude displayed is 2.5.

Coastal Water Temperatures

Place Temperature
No Stations Reporting

Nearby Weather Stations